Time;durP1;ratioP1;P1;durP2;ratioP2;P2;SDS_P1;SDS_P2;PMS_P1;PMS_P2;Temp;Humidity;BMP_temperature;BMP_pressure;BME280_temperature;BME280_humidity;BME280_pressure;Samples;Min_cycle;Max_cycle;Signal;HPM_P1;HPM_P2
2022/04/29 00:00:19;;;;;;;7.68;2.78;;;;;;;;;;10296652;28;20027;-44
2022/04/29 00:05:20;;;;;;;10.95;3.05;;;;;;;;;;10296218;28;20077;-43
2022/04/29 00:10:22;;;;;;;5.88;2.25;;;;;;;;;;10295412;28;20116;-43
2022/04/29 00:15:24;;;;;;;6.38;2.45;;;;;;;;;;10295384;28;20051;-43
2022/04/29 00:20:25;;;;;;;4.22;2.38;;;;;;;;;;10295227;28;20113;-43
2022/04/29 00:25:28;;;;;;;4.60;2.50;;;;;;;;;;10294979;28;20038;-43
2022/04/29 00:30:29;;;;;;;5.55;2.20;;;;;;;;;;10294897;28;20081;-43
2022/04/29 00:35:31;;;;;;;5.80;2.67;;;;;;;;;;10295273;28;20026;-43
2022/04/29 00:40:33;;;;;;;3.72;2.33;;;;;;;;;;10294874;28;20031;-47
2022/04/29 00:45:35;;;;;;;5.10;2.10;;;;;;;;;;10294116;28;20042;-42
2022/04/29 00:50:38;;;;;;;4.53;2.42;;;;;;;;;;10294239;28;20085;-42
2022/04/29 00:55:43;;;;;;;3.30;2.60;;;;;;;;;;10293924;28;20031;-43
2022/04/29 01:00:45;;;;;;;4.68;2.22;;;;;;;;;;10294575;28;20410;-43
2022/04/29 01:05:49;;;;;;;9.77;3.00;;;;;;;;;;10294342;28;20042;-43
2022/04/29 01:10:51;;;;;;;4.95;2.30;;;;;;;;;;10293449;28;20058;-43
2022/04/29 01:15:56;;;;;;;4.38;2.45;;;;;;;;;;10293709;28;20039;-43
2022/04/29 01:21:06;;;;;;;4.15;2.30;;;;;;;;;;10293498;28;20042;-43
2022/04/29 01:26:10;;;;;;;3.47;2.60;;;;;;;;;;10293874;28;20035;-43
2022/04/29 01:31:16;;;;;;;3.92;2.47;;;;;;;;;;10293334;28;20027;-43
2022/04/29 01:36:17;;;;;;;3.28;2.15;;;;;;;;;;10293133;28;20655;-42
2022/04/29 01:41:19;;;;;;;4.22;2.20;;;;;;;;;;10293235;28;20113;-43
2022/04/29 01:46:20;;;;;;;5.53;2.50;;;;;;;;;;10293342;28;20034;-44
2022/04/29 01:51:22;;;;;;;4.18;2.42;;;;;;;;;;10295275;28;20035;-44
2022/04/29 01:56:32;;;;;;;4.13;2.58;;;;;;;;;;10300696;28;20123;-44
2022/04/29 02:01:34;;;;;;;4.85;2.35;;;;;;;;;;10300490;28;20027;-44
2022/04/29 02:06:38;;;;;;;3.72;2.20;;;;;;;;;;10300262;28;20038;-43
2022/04/29 02:12:03;;;;;;;4.10;2.40;;;;;;;;;;10300051;28;20043;-44
2022/04/29 02:17:03;;;;;;;3.65;2.47;;;;;;;;;;10299926;28;20038;-44
2022/04/29 02:22:08;;;;;;;5.10;2.35;;;;;;;;;;10299889;28;20061;-44
2022/04/29 02:27:10;;;;;;;7.22;2.40;;;;;;;;;;10299531;28;20113;-45
2022/04/29 02:32:12;;;;;;;4.10;2.22;;;;;;;;;;10300086;28;20030;-44
2022/04/29 02:37:14;;;;;;;4.38;2.70;;;;;;;;;;10299116;28;20035;-44
2022/04/29 02:42:15;;;;;;;3.03;2.13;;;;;;;;;;10299627;28;20030;-44
2022/04/29 02:47:17;;;;;;;4.28;2.60;;;;;;;;;;10298732;28;20390;-45
2022/04/29 02:52:19;;;;;;;3.03;2.17;;;;;;;;;;10299382;28;20023;-43
2022/04/29 02:57:21;;;;;;;3.05;2.17;;;;;;;;;;10298457;28;20031;-44
2022/04/29 03:02:23;;;;;;;3.65;2.22;;;;;;;;;;10298647;28;20027;-44
2022/04/29 03:07:24;;;;;;;4.20;2.13;;;;;;;;;;10298087;28;20074;-44
2022/04/29 03:12:26;;;;;;;3.47;2.25;;;;;;;;;;10299427;28;20057;-44
2022/04/29 03:22:48;;;;;;;4.38;2.55;;;;;;;;;;10298778;28;20038;-44
2022/04/29 03:27:50;;;;;;;3.05;2.35;;;;;;;;;;10297280;28;20046;-44
2022/04/29 03:32:55;;;;;;;2.15;1.83;;;;;;;;;;10297807;28;20078;-46
2022/04/29 03:37:56;;;;;;;4.18;2.65;;;;;;;;;;10297346;28;20035;-44
2022/04/29 03:42:58;;;;;;;2.92;2.40;;;;;;;;;;10296748;28;20033;-43
2022/04/29 03:48:00;;;;;;;8.05;2.30;;;;;;;;;;10297160;28;20030;-44
2022/04/29 03:53:04;;;;;;;2.88;2.00;;;;;;;;;;10296985;28;20034;-44
2022/04/29 03:58:06;;;;;;;3.63;2.05;;;;;;;;;;10296742;28;20038;-44
2022/04/29 04:03:08;;;;;;;2.88;1.92;;;;;;;;;;10296488;28;20046;-43
2022/04/29 04:08:10;;;;;;;3.40;2.47;;;;;;;;;;10295971;28;20418;-44
2022/04/29 04:13:13;;;;;;;3.75;1.90;;;;;;;;;;10295268;28;20046;-43
2022/04/29 04:18:15;;;;;;;2.85;2.03;;;;;;;;;;10295251;28;20042;-44
2022/04/29 04:23:17;;;;;;;3.67;1.92;;;;;;;;;;10295140;28;20039;-44
2022/04/29 04:28:19;;;;;;;4.60;1.98;;;;;;;;;;10295089;28;20031;-44
2022/04/29 04:33:20;;;;;;;6.45;2.15;;;;;;;;;;10295524;28;20110;-44
2022/04/29 04:38:23;;;;;;;2.47;1.65;;;;;;;;;;10294634;28;20069;-44
2022/04/29 04:43:28;;;;;;;2.47;1.92;;;;;;;;;;10295128;28;20106;-43
2022/04/29 04:48:31;;;;;;;9.68;2.10;;;;;;;;;;10295009;28;20034;-44
2022/04/29 04:53:32;;;;;;;2.78;2.13;;;;;;;;;;10294300;28;20037;-43
2022/04/29 04:58:34;;;;;;;3.97;2.20;;;;;;;;;;10294053;28;20118;-43
2022/04/29 05:03:36;;;;;;;2.17;1.90;;;;;;;;;;10294497;28;20101;-43
2022/04/29 05:08:37;;;;;;;2.28;1.92;;;;;;;;;;10293518;28;20109;-43
2022/04/29 05:13:39;;;;;;;3.13;2.10;;;;;;;;;;10294203;28;20114;-43
2022/04/29 05:18:40;;;;;;;3.45;2.00;;;;;;;;;;10293578;28;20390;-43
2022/04/29 05:23:42;;;;;;;3.33;1.92;;;;;;;;;;10293870;28;20116;-43
2022/04/29 05:28:43;;;;;;;2.28;1.90;;;;;;;;;;10323680;28;20396;-45
2022/04/29 05:33:44;;;;;;;3.17;1.80;;;;;;;;;;10335425;28;20045;-53
2022/04/29 05:44:04;;;;;;;1.95;1.70;;;;;;;;;;10320121;28;20038;-44
2022/04/29 05:49:04;;;;;;;3.10;1.90;;;;;;;;;;10333365;28;20030;-43
2022/04/29 05:54:05;;;;;;;4.47;1.95;;;;;;;;;;10333531;28;20037;-43
2022/04/29 05:59:05;;;;;;;2.25;1.95;;;;;;;;;;10330985;28;20084;-59
2022/04/29 06:04:06;;;;;;;5.60;2.08;;;;;;;;;;10331836;28;20038;-44
2022/04/29 06:09:07;;;;;;;2.35;2.15;;;;;;;;;;10332176;28;20038;-43
2022/04/29 06:14:07;;;;;;;2.22;1.80;;;;;;;;;;10331065;28;20035;-44
2022/04/29 06:19:08;;;;;;;2.55;1.95;;;;;;;;;;10330145;28;20035;-44
2022/04/29 06:24:09;;;;;;;3.70;2.00;;;;;;;;;;10319456;28;20030;-43
2022/04/29 06:29:09;;;;;;;5.05;2.17;;;;;;;;;;10332384;28;20489;-44
2022/04/29 06:34:10;;;;;;;2.65;2.03;;;;;;;;;;10332651;28;20046;-43
2022/04/29 06:39:10;;;;;;;2.42;2.10;;;;;;;;;;10331912;28;20041;-43
2022/04/29 06:44:11;;;;;;;2.88;1.80;;;;;;;;;;10332074;28;20049;-44
2022/04/29 06:49:12;;;;;;;2.45;1.98;;;;;;;;;;10332114;28;20037;-49
2022/04/29 06:54:12;;;;;;;2.78;1.70;;;;;;;;;;10330752;28;20045;-42
2022/04/29 06:59:13;;;;;;;2.25;1.92;;;;;;;;;;10331188;28;20546;-43
2022/04/29 07:04:13;;;;;;;3.90;2.22;;;;;;;;;;10329590;28;20031;-42
2022/04/29 07:09:14;;;;;;;2.17;1.80;;;;;;;;;;10331444;28;20113;-42
2022/04/29 07:14:15;;;;;;;3.80;1.95;;;;;;;;;;10329556;28;20466;-43
2022/04/29 07:19:15;;;;;;;4.22;1.90;;;;;;;;;;10328697;28;20473;-56
2022/04/29 07:24:16;;;;;;;1.92;1.80;;;;;;;;;;10322788;28;20477;-49
2022/04/29 07:29:17;;;;;;;2.75;1.90;;;;;;;;;;10329793;28;20041;-42
2022/04/29 07:34:17;;;;;;;2.55;1.95;;;;;;;;;;10320101;28;20330;-45
2022/04/29 07:41:44;;;;;;;3.15;1.88;;;;;;;;;;10328142;28;20030;-43
2022/04/29 07:44:41;;;;;;;2.30;2.08;;;;;;;;;;10324014;28;20057;-43
2022/04/29 07:49:42;;;;;;;2.67;1.88;;;;;;;;;;10327082;28;20469;-44
2022/04/29 07:54:43;;;;;;;4.40;1.80;;;;;;;;;;10326573;28;20026;-42
2022/04/29 07:59:43;;;;;;;3.42;1.75;;;;;;;;;;10327299;28;20466;-42
2022/04/29 08:04:44;;;;;;;4.20;1.75;;;;;;;;;;10327585;28;20038;-42
2022/04/29 08:09:44;;;;;;;4.55;2.03;;;;;;;;;;10330695;28;20061;-54
2022/04/29 08:14:45;;;;;;;1.92;1.55;;;;;;;;;;10326955;28;20045;-42
2022/04/29 08:19:48;;;;;;;3.50;2.15;;;;;;;;;;10325269;28;20035;-42
2022/04/29 08:24:49;;;;;;;3.92;2.30;;;;;;;;;;10321597;28;20234;-48
2022/04/29 08:29:50;;;;;;;3.65;2.35;;;;;;;;;;10328318;28;20060;-41
2022/04/29 08:34:51;;;;;;;7.53;2.40;;;;;;;;;;10324963;28;20069;-44
2022/04/29 08:39:52;;;;;;;3.90;2.13;;;;;;;;;;10311188;28;20038;-42
2022/04/29 08:44:54;;;;;;;3.15;2.38;;;;;;;;;;10322692;28;20038;-43
2022/04/29 08:49:55;;;;;;;8.20;2.58;;;;;;;;;;10324419;28;20018;-46
2022/04/29 09:17:15;;;;;;;5.47;2.63;;;;;;;;;;10593516;27;20634;-61
2022/04/29 09:22:16;;;;;;;6.63;2.47;;;;;;;;;;10552033;28;20040;-59
2022/04/29 09:27:16;;;;;;;3.20;2.20;;;;;;;;;;10555709;28;20490;-60
2022/04/29 09:32:18;;;;;;;18.17;2.75;;;;;;;;;;10540148;28;20027;-54
2022/04/29 09:37:24;;;;;;;7.55;2.80;;;;;;;;;;10557361;28;20119;-58
2022/04/29 09:42:42;;;;;;;4.05;2.13;;;;;;;;;;10534323;28;20031;-55
2022/04/29 09:47:43;;;;;;;11.20;3.50;;;;;;;;;;10554913;28;20028;-45
2022/04/29 09:52:45;;;;;;;5.22;2.38;;;;;;;;;;10541945;28;20043;-52
2022/04/29 09:57:59;;;;;;;3.30;2.72;;;;;;;;;;10551981;28;20096;-46
2022/04/29 10:03:03;;;;;;;5.15;2.95;;;;;;;;;;10551351;28;20076;-46
2022/04/29 10:08:05;;;;;;;3.60;2.70;;;;;;;;;;10535942;28;20032;-45
2022/04/29 10:13:07;;;;;;;4.20;2.88;;;;;;;;;;10539025;28;20167;-51
2022/04/29 10:23:30;;;;;;;4.82;3.08;;;;;;;;;;10510775;28;20025;-47
2022/04/29 10:28:32;;;;;;;4.65;3.13;;;;;;;;;;10506049;28;20025;-49
2022/04/29 10:33:34;;;;;;;4.22;3.35;;;;;;;;;;10517985;28;20105;-45
2022/04/29 10:38:40;;;;;;;4.45;2.97;;;;;;;;;;10518139;28;20032;-45
2022/04/29 10:43:52;;;;;;;5.30;2.90;;;;;;;;;;10507656;28;20032;-46
2022/04/29 10:48:54;;;;;;;5.80;3.10;;;;;;;;;;10517276;28;20541;-46
2022/04/29 10:53:57;;;;;;;4.68;2.83;;;;;;;;;;10534136;28;20032;-47
2022/04/29 10:59:09;;;;;;;5.90;2.90;;;;;;;;;;10505003;28;20040;-54
2022/04/29 11:04:15;;;;;;;5.60;2.72;;;;;;;;;;10469802;28;20031;-46
2022/04/29 11:09:47;;;;;;;4.07;3.05;;;;;;;;;;10482995;28;20433;-44
2022/04/29 11:15:23;;;;;;;11.13;2.78;;;;;;;;;;10475249;28;20041;-45
2022/04/29 11:20:25;;;;;;;7.45;3.15;;;;;;;;;;10463193;28;20399;-61
2022/04/29 11:25:26;;;;;;;9.25;2.92;;;;;;;;;;10480076;28;20128;-45
2022/04/29 11:30:26;;;;;;;16.27;3.25;;;;;;;;;;10469993;28;20041;-49
2022/04/29 11:35:28;;;;;;;12.73;3.28;;;;;;;;;;10475327;28;20033;-45
2022/04/29 11:40:28;;;;;;;9.18;3.05;;;;;;;;;;10468648;28;20093;-48
2022/04/29 11:45:30;;;;;;;16.70;3.10;;;;;;;;;;10474170;28;20743;-47
2022/04/29 11:50:36;;;;;;;6.30;2.88;;;;;;;;;;10460282;28;20040;-44
2022/04/29 11:55:37;;;;;;;10.05;3.28;;;;;;;;;;10470719;28;20385;-47
2022/04/29 12:00:38;;;;;;;6.28;3.10;;;;;;;;;;10476194;28;20031;-54
2022/04/29 12:05:38;;;;;;;4.72;3.00;;;;;;;;;;10470401;28;20031;-47
2022/04/29 12:10:46;;;;;;;6.97;2.90;;;;;;;;;;10475781;28;20047;-44
2022/04/29 12:15:51;;;;;;;6.93;3.00;;;;;;;;;;10474061;28;20044;-48
2022/04/29 12:20:58;;;;;;;6.00;3.35;;;;;;;;;;10457901;28;20037;-48
2022/04/29 12:26:02;;;;;;;5.93;3.22;;;;;;;;;;10472266;28;20081;-61
2022/04/29 12:37:05;;;;;;;4.70;2.75;;;;;;;;;;10466064;28;20033;-49
2022/04/29 12:42:11;;;;;;;6.63;2.65;;;;;;;;;;10465423;28;20476;-47
2022/04/29 12:47:24;;;;;;;6.97;2.95;;;;;;;;;;10468692;28;20388;-45
2022/04/29 12:52:24;;;;;;;7.47;3.08;;;;;;;;;;10453073;28;20025;-47
2022/04/29 12:57:32;;;;;;;4.60;2.92;;;;;;;;;;10456994;28;20040;-50
2022/04/29 13:02:33;;;;;;;5.45;3.10;;;;;;;;;;10469834;28;20036;-53
2022/04/29 13:07:33;;;;;;;4.68;2.63;;;;;;;;;;10491109;28;20040;-45
2022/04/29 13:12:34;;;;;;;6.18;2.75;;;;;;;;;;10505533;28;20047;-49
2022/04/29 13:17:34;;;;;;;5.00;3.13;;;;;;;;;;10519412;28;20040;-47
2022/04/29 13:22:37;;;;;;;10.40;3.25;;;;;;;;;;10512437;28;20413;-47
2022/04/29 13:27:38;;;;;;;18.13;3.70;;;;;;;;;;10531094;28;20028;-52
2022/04/29 13:32:39;;;;;;;16.48;3.47;;;;;;;;;;10528607;28;20028;-51
2022/04/29 13:37:39;;;;;;;13.77;3.60;;;;;;;;;;10528847;28;20093;-50
2022/04/29 13:42:40;;;;;;;16.25;3.88;;;;;;;;;;10527467;28;20510;-55
2022/04/29 13:47:41;;;;;;;19.42;4.80;;;;;;;;;;10531050;28;20374;-44
2022/04/29 13:58:01;;;;;;;22.67;4.38;;;;;;;;;;10497174;28;20025;-45
2022/04/29 14:03:02;;;;;;;11.38;3.63;;;;;;;;;;10499348;28;20040;-44
2022/04/29 14:08:03;;;;;;;16.92;3.90;;;;;;;;;;10501066;28;20040;-52
2022/04/29 14:13:11;;;;;;;13.38;3.90;;;;;;;;;;10499496;28;20086;-48
2022/04/29 14:18:11;;;;;;;15.15;3.50;;;;;;;;;;10497024;28;20036;-44
2022/04/29 14:23:12;;;;;;;10.88;3.70;;;;;;;;;;10496181;28;20029;-44
2022/04/29 14:28:14;;;;;;;8.98;3.22;;;;;;;;;;10497446;28;20024;-47
2022/04/29 14:33:14;;;;;;;8.45;3.55;;;;;;;;;;10496485;28;20043;-44
2022/04/29 14:38:15;;;;;;;8.88;3.40;;;;;;;;;;10496763;28;20476;-44
2022/04/29 14:43:16;;;;;;;11.75;3.60;;;;;;;;;;10495658;28;20524;-43
2022/04/29 14:48:16;;;;;;;17.23;4.00;;;;;;;;;;10496551;28;20467;-44
2022/04/29 14:53:17;;;;;;;14.45;3.70;;;;;;;;;;10495202;28;20036;-45
2022/04/29 14:58:17;;;;;;;15.70;3.75;;;;;;;;;;10496145;28;20390;-44
2022/04/29 15:03:18;;;;;;;9.35;3.70;;;;;;;;;;10495224;28;20032;-44
2022/04/29 15:08:19;;;;;;;9.68;3.70;;;;;;;;;;10515664;28;20238;-44
2022/04/29 15:18:38;;;;;;;7.57;3.63;;;;;;;;;;10515604;28;20056;-44
2022/04/29 15:23:39;;;;;;;12.52;4.05;;;;;;;;;;10493967;28;20064;-49
2022/04/29 15:28:39;;;;;;;13.57;3.83;;;;;;;;;;10494968;28;20036;-44
2022/04/29 15:33:40;;;;;;;12.85;3.83;;;;;;;;;;10514861;28;20043;-44
2022/04/29 15:38:40;;;;;;;14.27;4.10;;;;;;;;;;10510208;28;20424;-43
2022/04/29 15:43:44;;;;;;;9.38;3.50;;;;;;;;;;10493576;28;20032;-44
2022/04/29 15:48:44;;;;;;;10.80;4.03;;;;;;;;;;10525003;28;20387;-44
2022/04/29 15:53:45;;;;;;;13.38;3.53;;;;;;;;;;10518442;28;20029;-46
2022/04/29 15:58:47;;;;;;;10.82;4.28;;;;;;;;;;10527056;28;20028;-49
2022/04/29 16:03:49;;;;;;;9.55;3.67;;;;;;;;;;10534708;28;20028;-62
2022/04/29 16:08:50;;;;;;;7.85;3.40;;;;;;;;;;10534460;28;20471;-57
2022/04/29 16:13:51;;;;;;;11.98;3.70;;;;;;;;;;10514655;28;20047;-44
2022/04/29 16:29:30;;;;;;;9.63;3.50;;;;;;;;;;10498505;28;20028;-43
2022/04/29 16:34:30;;;;;;;11.88;3.30;;;;;;;;;;10524399;28;20098;-44
2022/04/29 16:39:31;;;;;;;10.13;3.80;;;;;;;;;;10531643;28;20518;-43
2022/04/29 16:44:32;;;;;;;12.13;3.67;;;;;;;;;;10533395;28;20608;-43
2022/04/29 16:49:32;;;;;;;8.27;3.38;;;;;;;;;;10531655;28;20031;-43
2022/04/29 16:54:33;;;;;;;7.10;3.30;;;;;;;;;;10491130;28;20391;-43
2022/04/29 16:59:35;;;;;;;16.80;3.78;;;;;;;;;;10492294;28;20611;-44
2022/04/29 17:04:36;;;;;;;6.63;3.55;;;;;;;;;;10533031;28;20032;-43
2022/04/29 17:09:36;;;;;;;11.50;3.60;;;;;;;;;;10532859;28;20028;-43
2022/04/29 17:14:37;;;;;;;11.73;3.65;;;;;;;;;;10501951;28;20052;-43
2022/04/29 17:19:38;;;;;;;7.38;3.40;;;;;;;;;;10524549;28;20035;-58
2022/04/29 17:24:39;;;;;;;5.63;3.20;;;;;;;;;;10523630;28;20074;-43
2022/04/29 17:29:40;;;;;;;12.02;4.07;;;;;;;;;;10539060;28;20057;-50
2022/04/29 17:34:41;;;;;;;10.38;3.00;;;;;;;;;;10532682;28;20042;-54
2022/04/29 17:45:03;;;;;;;4.68;2.95;;;;;;;;;;10505785;28;20076;-43
2022/04/29 17:50:19;;;;;;;7.55;3.30;;;;;;;;;;10514714;28;20567;-60
2022/04/29 17:55:26;;;;;;;8.90;2.85;;;;;;;;;;10524979;28;20445;-43
2022/04/29 18:00:28;;;;;;;7.13;3.05;;;;;;;;;;10525918;28;20042;-43
2022/04/29 18:05:30;;;;;;;6.00;3.28;;;;;;;;;;10510416;28;20367;-43
2022/04/29 18:10:31;;;;;;;5.65;3.30;;;;;;;;;;10517606;28;20124;-43
2022/04/29 18:15:31;;;;;;;4.68;3.08;;;;;;;;;;10511914;28;20171;-43
2022/04/29 18:20:32;;;;;;;5.00;3.10;;;;;;;;;;10518023;28;20024;-43
2022/04/29 18:25:33;;;;;;;7.03;3.10;;;;;;;;;;10535427;28;20051;-43
2022/04/29 18:30:35;;;;;;;5.32;3.03;;;;;;;;;;10538323;28;20342;-43
2022/04/29 18:35:36;;;;;;;9.68;3.53;;;;;;;;;;10531702;28;20032;-43
2022/04/29 18:40:37;;;;;;;6.63;3.13;;;;;;;;;;10495619;28;20496;-43
2022/04/29 18:45:37;;;;;;;5.78;3.17;;;;;;;;;;10496568;28;20468;-44
2022/04/29 18:50:38;;;;;;;11.80;3.40;;;;;;;;;;10495832;28;20073;-43
2022/04/29 18:55:39;;;;;;;6.45;3.00;;;;;;;;;;10514128;28;20064;-43
2022/04/29 19:00:40;;;;;;;4.68;3.50;;;;;;;;;;10535761;28;20028;-54
2022/04/29 19:05:43;;;;;;;5.82;2.85;;;;;;;;;;10537187;28;20349;-44
2022/04/29 19:10:44;;;;;;;4.20;3.20;;;;;;;;;;10534788;28;20024;-44
2022/04/29 19:15:45;;;;;;;3.40;2.70;;;;;;;;;;10536076;28;20070;-43
2022/04/29 19:20:46;;;;;;;5.57;3.08;;;;;;;;;;10508984;28;20025;-43
2022/04/29 19:25:46;;;;;;;6.63;3.00;;;;;;;;;;10504474;28;20024;-44
2022/04/29 19:30:48;;;;;;;3.72;2.60;;;;;;;;;;10530046;28;20032;-44
2022/04/29 19:35:48;;;;;;;6.57;2.97;;;;;;;;;;10531228;28;20406;-43
2022/04/29 19:40:49;;;;;;;4.25;2.88;;;;;;;;;;10534018;28;20024;-43
2022/04/29 19:45:49;;;;;;;8.32;2.80;;;;;;;;;;10534246;28;20081;-43
2022/04/29 19:50:50;;;;;;;4.28;2.80;;;;;;;;;;10514654;28;20046;-43
2022/04/29 19:55:51;;;;;;;5.15;2.92;;;;;;;;;;10533062;28;20067;-44
2022/04/29 20:00:51;;;;;;;4.70;2.75;;;;;;;;;;10530669;28;20467;-43
2022/04/29 20:05:52;;;;;;;9.20;2.80;;;;;;;;;;10532028;28;20532;-43
2022/04/29 20:10:53;;;;;;;12.85;3.25;;;;;;;;;;10532799;28;20031;-43
2022/04/29 20:15:53;;;;;;;9.05;3.00;;;;;;;;;;10533601;28;20624;-44
2022/04/29 20:20:55;;;;;;;7.10;3.15;;;;;;;;;;10533077;28;20035;-43
2022/04/29 20:25:57;;;;;;;6.47;3.60;;;;;;;;;;10533561;28;20035;-43
2022/04/29 20:30:58;;;;;;;12.27;2.90;;;;;;;;;;10531874;28;20228;-43
2022/04/29 20:36:00;;;;;;;4.25;3.10;;;;;;;;;;10533235;28;20028;-44
2022/04/29 20:46:20;;;;;;;5.03;2.97;;;;;;;;;;10533066;28;20256;-43
2022/04/29 20:51:26;;;;;;;6.40;3.30;;;;;;;;;;10531287;28;20247;-44
2022/04/29 20:56:27;;;;;;;6.63;3.28;;;;;;;;;;10532533;28;20101;-44
2022/04/29 21:01:29;;;;;;;7.03;3.60;;;;;;;;;;10511306;28;20082;-43
2022/04/29 21:06:29;;;;;;;5.38;3.28;;;;;;;;;;10532178;28;20039;-44
2022/04/29 21:11:30;;;;;;;6.25;3.08;;;;;;;;;;10530738;28;20391;-44
2022/04/29 21:16:30;;;;;;;5.85;3.47;;;;;;;;;;10531181;28;20078;-44
2022/04/29 21:21:32;;;;;;;6.35;3.78;;;;;;;;;;10532362;28;20047;-43
2022/04/29 21:26:32;;;;;;;11.32;3.75;;;;;;;;;;10529692;28;20035;-44
2022/04/29 21:31:33;;;;;;;6.90;3.92;;;;;;;;;;10532051;28;20024;-44
2022/04/29 21:36:34;;;;;;;10.70;3.97;;;;;;;;;;10513192;28;20032;-44
2022/04/29 21:41:35;;;;;;;16.00;3.70;;;;;;;;;;10490428;28;20218;-43
2022/04/29 21:46:36;;;;;;;11.73;4.40;;;;;;;;;;10517818;28;20656;-44
2022/04/29 21:51:36;;;;;;;17.55;4.50;;;;;;;;;;10529652;28;20062;-44
2022/04/29 21:56:37;;;;;;;12.43;4.53;;;;;;;;;;10523758;28;20031;-43
2022/04/29 22:01:37;;;;;;;8.52;4.45;;;;;;;;;;10525520;28;20027;-44
2022/04/29 22:06:39;;;;;;;7.32;4.13;;;;;;;;;;10524403;28;20025;-44
2022/04/29 22:11:40;;;;;;;21.95;4.18;;;;;;;;;;10527610;28;20047;-44
2022/04/29 22:16:40;;;;;;;10.98;5.00;;;;;;;;;;10498198;28;20055;-43
2022/04/29 22:21:41;;;;;;;9.18;4.40;;;;;;;;;;10512258;28;20113;-44
2022/04/29 22:26:44;;;;;;;10.80;4.95;;;;;;;;;;10536920;28;20024;-44
2022/04/29 22:31:45;;;;;;;12.40;4.07;;;;;;;;;;10500743;28;20498;-43
2022/04/29 22:36:45;;;;;;;5.28;3.47;;;;;;;;;;10496881;28;20039;-43
2022/04/29 22:41:46;;;;;;;18.02;5.35;;;;;;;;;;10506887;28;20031;-61
2022/04/29 22:46:46;;;;;;;18.50;4.43;;;;;;;;;;10536614;28;20032;-44
2022/04/29 22:51:47;;;;;;;14.32;4.32;;;;;;;;;;10504334;28;20052;-43
2022/04/29 22:56:47;;;;;;;11.98;3.78;;;;;;;;;;10495506;28;20036;-43
2022/04/29 23:01:48;;;;;;;24.52;4.85;;;;;;;;;;10525836;28;20051;-43
2022/04/29 23:06:49;;;;;;;27.77;4.07;;;;;;;;;;10535454;28;20028;-43
2022/04/29 23:11:49;;;;;;;9.00;4.13;;;;;;;;;;10513644;28;20039;-44
2022/04/29 23:16:50;;;;;;;13.38;4.18;;;;;;;;;;10494576;28;20052;-44
2022/04/29 23:21:51;;;;;;;15.02;4.25;;;;;;;;;;10498827;28;20031;-46
2022/04/29 23:26:51;;;;;;;18.73;4.55;;;;;;;;;;10516335;28;20051;-43
2022/04/29 23:31:52;;;;;;;17.85;4.32;;;;;;;;;;10528450;28;20031;-44
2022/04/29 23:36:52;;;;;;;14.68;4.53;;;;;;;;;;10527301;28;20502;-43
2022/04/29 23:41:53;;;;;;;10.10;4.22;;;;;;;;;;10531054;28;20028;-43
2022/04/29 23:46:54;;;;;;;15.82;4.82;;;;;;;;;;10534796;28;20094;-43
2022/04/29 23:52:10;;;;;;;13.15;4.07;;;;;;;;;;10517926;28;20031;-43
2022/04/29 23:57:12;;;;;;;12.07;4.00;;;;;;;;;;10492757;28;20164;-55
